sensor_id;sensor_type;location;lat;lon;timestamp;P1;durP1;ratioP1;P2;durP2;ratioP2
71204;SDS011;58935;54.498;18.544;2024-03-02T00:00:26;42.80;;;26.20;;
71204;SDS011;58935;54.498;18.544;2024-03-02T00:02:52;37.20;;;26.20;;
71204;SDS011;58935;54.498;18.544;2024-03-02T00:05:22;38.20;;;25.20;;
71204;SDS011;58935;54.498;18.544;2024-03-02T00:07:52;44.70;;;27.40;;
71204;SDS011;58935;54.498;18.544;2024-03-02T00:10:24;43.60;;;27.70;;
71204;SDS011;58935;54.498;18.544;2024-03-02T00:12:55;39.00;;;25.80;;
71204;SDS011;58935;54.498;18.544;2024-03-02T00:15:33;41.20;;;26.90;;
71204;SDS011;58935;54.498;18.544;2024-03-02T00:18:04;41.00;;;27.90;;
71204;SDS011;58935;54.498;18.544;2024-03-02T00:20:33;43.60;;;27.10;;
71204;SDS011;58935;54.498;18.544;2024-03-02T00:23:03;40.70;;;27.10;;
71204;SDS011;58935;54.498;18.544;2024-03-02T00:25:37;42.30;;;27.60;;
71204;SDS011;58935;54.498;18.544;2024-03-02T00:28:13;49.90;;;29.90;;
71204;SDS011;58935;54.498;18.544;2024-03-02T00:30:57;47.60;;;28.90;;
71204;SDS011;58935;54.498;18.544;2024-03-02T00:33:26;46.60;;;28.80;;
71204;SDS011;58935;54.498;18.544;2024-03-02T00:35:53;42.40;;;30.10;;
71204;SDS011;58935;54.498;18.544;2024-03-02T00:38:22;44.30;;;30.20;;
71204;SDS011;58935;54.498;18.544;2024-03-02T00:40:50;48.50;;;30.00;;
71204;SDS011;58935;54.498;18.544;2024-03-02T00:43:29;39.30;;;28.90;;
71204;SDS011;58935;54.498;18.544;2024-03-02T00:49:33;42.20;;;29.70;;
71204;SDS011;58935;54.498;18.544;2024-03-02T00:51:59;49.10;;;30.00;;
71204;SDS011;58935;54.498;18.544;2024-03-02T00:54:27;43.50;;;29.40;;
71204;SDS011;58935;54.498;18.544;2024-03-02T00:56:54;43.40;;;30.40;;
71204;SDS011;58935;54.498;18.544;2024-03-02T00:59:21;52.60;;;31.20;;
71204;SDS011;58935;54.498;18.544;2024-03-02T01:01:48;40.70;;;28.20;;
71204;SDS011;58935;54.498;18.544;2024-03-02T01:04:17;44.30;;;29.20;;
71204;SDS011;58935;54.498;18.544;2024-03-02T01:06:43;53.70;;;31.30;;
71204;SDS011;58935;54.498;18.544;2024-03-02T01:09:08;48.50;;;29.80;;
71204;SDS011;58935;54.498;18.544;2024-03-02T01:11:34;44.50;;;28.80;;
71204;SDS011;58935;54.498;18.544;2024-03-02T01:13:59;55.40;;;31.40;;
71204;SDS011;58935;54.498;18.544;2024-03-02T01:16:27;47.30;;;28.90;;
71204;SDS011;58935;54.498;18.544;2024-03-02T01:18:54;47.20;;;30.40;;
71204;SDS011;58935;54.498;18.544;2024-03-02T01:21:20;47.20;;;31.30;;
71204;SDS011;58935;54.498;18.544;2024-03-02T01:23:45;41.50;;;28.90;;
71204;SDS011;58935;54.498;18.544;2024-03-02T01:26:10;48.00;;;30.10;;
71204;SDS011;58935;54.498;18.544;2024-03-02T01:28:36;43.80;;;30.90;;
71204;SDS011;58935;54.498;18.544;2024-03-02T01:31:01;44.10;;;30.00;;
71204;SDS011;58935;54.498;18.544;2024-03-02T01:33:27;42.00;;;29.70;;
71204;SDS011;58935;54.498;18.544;2024-03-02T01:35:52;48.10;;;31.40;;
71204;SDS011;58935;54.498;18.544;2024-03-02T01:38:18;46.10;;;31.00;;
71204;SDS011;58935;54.498;18.544;2024-03-02T01:40:43;47.10;;;31.20;;
71204;SDS011;58935;54.498;18.544;2024-03-02T01:43:09;52.50;;;31.60;;
71204;SDS011;58935;54.498;18.544;2024-03-02T01:45:35;47.30;;;31.40;;
71204;SDS011;58935;54.498;18.544;2024-03-02T01:48:02;50.40;;;30.60;;
71204;SDS011;58935;54.498;18.544;2024-03-02T01:50:29;44.20;;;29.60;;
71204;SDS011;58935;54.498;18.544;2024-03-02T01:52:57;49.50;;;29.10;;
71204;SDS011;58935;54.498;18.544;2024-03-02T01:55:26;43.70;;;29.80;;
71204;SDS011;58935;54.498;18.544;2024-03-02T01:57:55;46.50;;;30.40;;
71204;SDS011;58935;54.498;18.544;2024-03-02T02:00:21;50.00;;;30.10;;
71204;SDS011;58935;54.498;18.544;2024-03-02T02:02:48;42.50;;;28.40;;
71204;SDS011;58935;54.498;18.544;2024-03-02T02:05:14;45.80;;;30.20;;
71204;SDS011;58935;54.498;18.544;2024-03-02T02:07:41;42.60;;;30.10;;
71204;SDS011;58935;54.498;18.544;2024-03-02T02:10:08;49.40;;;31.70;;
71204;SDS011;58935;54.498;18.544;2024-03-02T02:12:34;51.70;;;30.80;;
71204;SDS011;58935;54.498;18.544;2024-03-02T02:15:03;46.00;;;29.70;;
71204;SDS011;58935;54.498;18.544;2024-03-02T02:17:46;42.10;;;29.00;;
71204;SDS011;58935;54.498;18.544;2024-03-02T02:20:12;40.90;;;28.50;;
71204;SDS011;58935;54.498;18.544;2024-03-02T02:22:37;46.10;;;28.30;;
71204;SDS011;58935;54.498;18.544;2024-03-02T02:25:05;43.80;;;30.10;;
71204;SDS011;58935;54.498;18.544;2024-03-02T02:27:30;45.00;;;29.90;;
71204;SDS011;58935;54.498;18.544;2024-03-02T02:29:56;41.40;;;28.40;;
71204;SDS011;58935;54.498;18.544;2024-03-02T02:32:23;42.60;;;29.10;;
71204;SDS011;58935;54.498;18.544;2024-03-02T02:34:52;44.50;;;28.40;;
71204;SDS011;58935;54.498;18.544;2024-03-02T02:37:18;42.80;;;29.00;;
71204;SDS011;58935;54.498;18.544;2024-03-02T02:39:43;46.10;;;28.80;;
71204;SDS011;58935;54.498;18.544;2024-03-02T02:42:08;46.10;;;28.20;;
71204;SDS011;58935;54.498;18.544;2024-03-02T02:44:34;40.50;;;28.40;;
71204;SDS011;58935;54.498;18.544;2024-03-02T02:46:59;42.40;;;28.50;;
71204;SDS011;58935;54.498;18.544;2024-03-02T02:49:24;47.30;;;30.10;;
71204;SDS011;58935;54.498;18.544;2024-03-02T02:51:50;43.40;;;27.40;;
71204;SDS011;58935;54.498;18.544;2024-03-02T02:54:15;47.10;;;28.40;;
71204;SDS011;58935;54.498;18.544;2024-03-02T02:56:41;44.50;;;29.30;;
71204;SDS011;58935;54.498;18.544;2024-03-02T02:59:09;44.50;;;29.50;;
71204;SDS011;58935;54.498;18.544;2024-03-02T03:01:34;47.20;;;29.90;;
71204;SDS011;58935;54.498;18.544;2024-03-02T03:03:59;47.70;;;28.50;;
71204;SDS011;58935;54.498;18.544;2024-03-02T03:06:27;41.30;;;28.50;;
71204;SDS011;58935;54.498;18.544;2024-03-02T03:08:52;44.40;;;28.60;;
71204;SDS011;58935;54.498;18.544;2024-03-02T03:11:17;46.80;;;30.10;;
71204;SDS011;58935;54.498;18.544;2024-03-02T03:13:43;42.30;;;28.00;;
71204;SDS011;58935;54.498;18.544;2024-03-02T03:16:08;47.40;;;29.20;;
71204;SDS011;58935;54.498;18.544;2024-03-02T03:18:35;44.10;;;29.10;;
71204;SDS011;58935;54.498;18.544;2024-03-02T03:21:01;45.10;;;29.80;;
71204;SDS011;58935;54.498;18.544;2024-03-02T03:23:27;41.50;;;27.90;;
71204;SDS011;58935;54.498;18.544;2024-03-02T03:25:52;42.70;;;28.10;;
71204;SDS011;58935;54.498;18.544;2024-03-02T03:28:17;48.00;;;29.50;;
71204;SDS011;58935;54.498;18.544;2024-03-02T03:30:43;45.80;;;29.40;;
71204;SDS011;58935;54.498;18.544;2024-03-02T03:33:08;45.40;;;29.60;;
71204;SDS011;58935;54.498;18.544;2024-03-02T03:35:33;43.10;;;28.40;;
71204;SDS011;58935;54.498;18.544;2024-03-02T03:38:00;43.60;;;28.40;;
71204;SDS011;58935;54.498;18.544;2024-03-02T03:40:25;46.30;;;30.70;;
71204;SDS011;58935;54.498;18.544;2024-03-02T03:42:53;45.00;;;28.90;;
71204;SDS011;58935;54.498;18.544;2024-03-02T03:45:19;46.30;;;30.50;;
71204;SDS011;58935;54.498;18.544;2024-03-02T03:47:45;43.10;;;29.60;;
71204;SDS011;58935;54.498;18.544;2024-03-02T03:50:10;45.30;;;30.80;;
71204;SDS011;58935;54.498;18.544;2024-03-02T03:52:35;47.30;;;29.90;;
71204;SDS011;58935;54.498;18.544;2024-03-02T03:55:01;51.00;;;30.20;;
71204;SDS011;58935;54.498;18.544;2024-03-02T03:57:27;46.20;;;29.80;;
71204;SDS011;58935;54.498;18.544;2024-03-02T03:59:53;44.20;;;30.50;;
71204;SDS011;58935;54.498;18.544;2024-03-02T04:02:19;47.30;;;30.80;;
71204;SDS011;58935;54.498;18.544;2024-03-02T04:04:44;46.00;;;30.50;;
71204;SDS011;58935;54.498;18.544;2024-03-02T04:07:09;43.30;;;30.30;;
71204;SDS011;58935;54.498;18.544;2024-03-02T04:09:35;45.70;;;31.30;;
71204;SDS011;58935;54.498;18.544;2024-03-02T04:12:00;51.00;;;32.30;;
71204;SDS011;58935;54.498;18.544;2024-03-02T04:14:25;54.10;;;32.40;;
71204;SDS011;58935;54.498;18.544;2024-03-02T04:16:51;44.70;;;31.10;;
71204;SDS011;58935;54.498;18.544;2024-03-02T04:19:19;48.80;;;32.00;;
71204;SDS011;58935;54.498;18.544;2024-03-02T04:21:44;53.30;;;34.00;;
71204;SDS011;58935;54.498;18.544;2024-03-02T04:24:09;52.90;;;31.80;;
71204;SDS011;58935;54.498;18.544;2024-03-02T04:26:35;53.00;;;31.00;;
71204;SDS011;58935;54.498;18.544;2024-03-02T04:29:02;47.60;;;32.70;;
71204;SDS011;58935;54.498;18.544;2024-03-02T04:31:28;51.50;;;32.50;;
71204;SDS011;58935;54.498;18.544;2024-03-02T04:33:53;47.40;;;31.60;;
71204;SDS011;58935;54.498;18.544;2024-03-02T04:36:19;52.40;;;32.60;;
71204;SDS011;58935;54.498;18.544;2024-03-02T04:38:44;46.70;;;30.60;;
71204;SDS011;58935;54.498;18.544;2024-03-02T04:43:35;49.70;;;32.90;;
71204;SDS011;58935;54.498;18.544;2024-03-02T04:46:00;48.30;;;31.30;;
71204;SDS011;58935;54.498;18.544;2024-03-02T04:48:28;49.80;;;33.00;;
71204;SDS011;58935;54.498;18.544;2024-03-02T04:50:54;49.30;;;31.30;;
71204;SDS011;58935;54.498;18.544;2024-03-02T04:53:19;50.60;;;31.30;;
71204;SDS011;58935;54.498;18.544;2024-03-02T04:55:44;45.10;;;31.30;;
71204;SDS011;58935;54.498;18.544;2024-03-02T04:58:09;47.00;;;31.00;;
71204;SDS011;58935;54.498;18.544;2024-03-02T05:00:35;45.00;;;30.50;;
71204;SDS011;58935;54.498;18.544;2024-03-02T05:03:01;49.50;;;31.30;;
71204;SDS011;58935;54.498;18.544;2024-03-02T05:05:27;49.60;;;32.10;;
71204;SDS011;58935;54.498;18.544;2024-03-02T05:07:52;49.20;;;32.40;;
71204;SDS011;58935;54.498;18.544;2024-03-02T05:10:18;55.70;;;32.70;;
71204;SDS011;58935;54.498;18.544;2024-03-02T05:12:44;50.50;;;33.10;;
71204;SDS011;58935;54.498;18.544;2024-03-02T05:15:13;45.80;;;31.40;;
71204;SDS011;58935;54.498;18.544;2024-03-02T05:17:40;53.10;;;33.10;;
71204;SDS011;58935;54.498;18.544;2024-03-02T05:20:09;49.90;;;32.00;;
71204;SDS011;58935;54.498;18.544;2024-03-02T05:22:36;48.00;;;32.00;;
71204;SDS011;58935;54.498;18.544;2024-03-02T05:25:03;47.50;;;30.00;;
71204;SDS011;58935;54.498;18.544;2024-03-02T05:27:34;52.90;;;31.50;;
71204;SDS011;58935;54.498;18.544;2024-03-02T05:30:00;51.60;;;32.00;;
71204;SDS011;58935;54.498;18.544;2024-03-02T05:32:28;49.80;;;32.60;;
71204;SDS011;58935;54.498;18.544;2024-03-02T05:34:54;48.10;;;32.30;;
71204;SDS011;58935;54.498;18.544;2024-03-02T05:37:20;45.50;;;31.40;;
71204;SDS011;58935;54.498;18.544;2024-03-02T05:39:47;54.70;;;32.40;;
71204;SDS011;58935;54.498;18.544;2024-03-02T05:42:17;51.20;;;32.00;;
71204;SDS011;58935;54.498;18.544;2024-03-02T05:44:42;56.60;;;34.00;;
71204;SDS011;58935;54.498;18.544;2024-03-02T05:47:10;55.00;;;34.20;;
71204;SDS011;58935;54.498;18.544;2024-03-02T05:49:40;48.70;;;32.70;;
71204;SDS011;58935;54.498;18.544;2024-03-02T05:52:06;52.90;;;32.70;;
71204;SDS011;58935;54.498;18.544;2024-03-02T05:54:31;45.70;;;31.30;;
71204;SDS011;58935;54.498;18.544;2024-03-02T05:56:57;48.90;;;33.20;;
71204;SDS011;58935;54.498;18.544;2024-03-02T05:59:40;48.90;;;32.40;;
71204;SDS011;58935;54.498;18.544;2024-03-02T06:02:06;50.80;;;30.60;;
71204;SDS011;58935;54.498;18.544;2024-03-02T06:04:31;52.40;;;32.20;;
71204;SDS011;58935;54.498;18.544;2024-03-02T06:06:56;51.60;;;31.90;;
71204;SDS011;58935;54.498;18.544;2024-03-02T06:09:22;55.60;;;32.90;;
71204;SDS011;58935;54.498;18.544;2024-03-02T06:11:49;48.50;;;31.90;;
71204;SDS011;58935;54.498;18.544;2024-03-02T06:14:15;52.00;;;32.80;;
71204;SDS011;58935;54.498;18.544;2024-03-02T06:16:40;51.40;;;31.10;;
71204;SDS011;58935;54.498;18.544;2024-03-02T06:19:05;48.10;;;32.40;;
71204;SDS011;58935;54.498;18.544;2024-03-02T06:21:33;55.00;;;33.00;;
71204;SDS011;58935;54.498;18.544;2024-03-02T06:23:58;49.40;;;33.00;;
71204;SDS011;58935;54.498;18.544;2024-03-02T06:26:26;47.00;;;32.10;;
71204;SDS011;58935;54.498;18.544;2024-03-02T06:28:51;54.00;;;31.40;;
71204;SDS011;58935;54.498;18.544;2024-03-02T06:31:17;51.90;;;33.10;;
71204;SDS011;58935;54.498;18.544;2024-03-02T06:33:42;48.90;;;32.70;;
71204;SDS011;58935;54.498;18.544;2024-03-02T06:36:07;50.40;;;34.10;;
71204;SDS011;58935;54.498;18.544;2024-03-02T06:38:37;51.30;;;31.60;;
71204;SDS011;58935;54.498;18.544;2024-03-02T06:41:02;52.80;;;32.60;;
71204;SDS011;58935;54.498;18.544;2024-03-02T06:43:28;48.70;;;32.30;;
71204;SDS011;58935;54.498;18.544;2024-03-02T06:45:53;50.00;;;31.20;;
71204;SDS011;58935;54.498;18.544;2024-03-02T06:48:21;53.20;;;33.70;;
71204;SDS011;58935;54.498;18.544;2024-03-02T06:50:47;60.20;;;34.30;;
71204;SDS011;58935;54.498;18.544;2024-03-02T06:53:13;49.10;;;31.30;;
71204;SDS011;58935;54.498;18.544;2024-03-02T06:55:38;52.50;;;32.80;;
71204;SDS011;58935;54.498;18.544;2024-03-02T06:58:03;52.40;;;33.90;;
71204;SDS011;58935;54.498;18.544;2024-03-02T07:00:32;52.80;;;32.30;;
71204;SDS011;58935;54.498;18.544;2024-03-02T07:02:57;55.20;;;33.70;;
71204;SDS011;58935;54.498;18.544;2024-03-02T07:05:23;54.20;;;31.70;;
71204;SDS011;58935;54.498;18.544;2024-03-02T07:07:51;51.60;;;34.00;;
71204;SDS011;58935;54.498;18.544;2024-03-02T07:10:16;51.80;;;32.40;;
71204;SDS011;58935;54.498;18.544;2024-03-02T07:12:44;53.20;;;31.50;;
71204;SDS011;58935;54.498;18.544;2024-03-02T07:15:12;54.20;;;33.20;;
71204;SDS011;58935;54.498;18.544;2024-03-02T07:17:54;55.20;;;34.20;;
71204;SDS011;58935;54.498;18.544;2024-03-02T07:20:19;54.10;;;34.70;;
71204;SDS011;58935;54.498;18.544;2024-03-02T07:22:45;56.00;;;36.00;;
71204;SDS011;58935;54.498;18.544;2024-03-02T07:25:11;48.20;;;33.00;;
71204;SDS011;58935;54.498;18.544;2024-03-02T07:27:36;56.70;;;35.90;;
71204;SDS011;58935;54.498;18.544;2024-03-02T07:30:02;51.70;;;33.80;;
71204;SDS011;58935;54.498;18.544;2024-03-02T07:32:29;57.20;;;36.20;;
71204;SDS011;58935;54.498;18.544;2024-03-02T07:34:56;58.00;;;35.80;;
71204;SDS011;58935;54.498;18.544;2024-03-02T07:37:23;58.40;;;35.90;;
71204;SDS011;58935;54.498;18.544;2024-03-02T07:39:50;56.70;;;34.10;;
71204;SDS011;58935;54.498;18.544;2024-03-02T07:42:18;54.50;;;34.00;;
71204;SDS011;58935;54.498;18.544;2024-03-02T07:44:44;53.50;;;34.10;;
71204;SDS011;58935;54.498;18.544;2024-03-02T07:47:12;61.00;;;38.10;;
71204;SDS011;58935;54.498;18.544;2024-03-02T07:49:40;62.70;;;37.50;;
71204;SDS011;58935;54.498;18.544;2024-03-02T07:52:05;57.40;;;35.90;;
71204;SDS011;58935;54.498;18.544;2024-03-02T07:54:33;57.00;;;36.50;;
71204;SDS011;58935;54.498;18.544;2024-03-02T07:56:58;56.00;;;35.50;;
71204;SDS011;58935;54.498;18.544;2024-03-02T07:59:26;61.00;;;37.10;;
71204;SDS011;58935;54.498;18.544;2024-03-02T08:01:52;61.10;;;37.30;;
71204;SDS011;58935;54.498;18.544;2024-03-02T08:04:17;61.90;;;37.00;;
71204;SDS011;58935;54.498;18.544;2024-03-02T08:06:43;53.60;;;35.80;;
71204;SDS011;58935;54.498;18.544;2024-03-02T08:09:08;54.00;;;35.10;;
71204;SDS011;58935;54.498;18.544;2024-03-02T08:11:35;56.60;;;33.70;;
71204;SDS011;58935;54.498;18.544;2024-03-02T08:14:01;54.30;;;35.60;;
71204;SDS011;58935;54.498;18.544;2024-03-02T08:16:26;50.00;;;34.70;;
71204;SDS011;58935;54.498;18.544;2024-03-02T08:18:54;55.30;;;35.40;;
71204;SDS011;58935;54.498;18.544;2024-03-02T08:21:22;53.00;;;33.70;;
71204;SDS011;58935;54.498;18.544;2024-03-02T08:23:47;56.40;;;33.70;;
71204;SDS011;58935;54.498;18.544;2024-03-02T08:26:13;52.90;;;33.40;;
71204;SDS011;58935;54.498;18.544;2024-03-02T08:28:38;55.60;;;33.80;;
71204;SDS011;58935;54.498;18.544;2024-03-02T08:31:06;49.60;;;34.80;;
71204;SDS011;58935;54.498;18.544;2024-03-02T08:33:32;55.10;;;35.10;;
71204;SDS011;58935;54.498;18.544;2024-03-02T08:35:58;53.90;;;30.90;;
71204;SDS011;58935;54.498;18.544;2024-03-02T08:38:26;56.40;;;34.20;;
71204;SDS011;58935;54.498;18.544;2024-03-02T08:40:52;56.60;;;34.20;;
71204;SDS011;58935;54.498;18.544;2024-03-02T08:43:18;52.90;;;33.20;;
71204;SDS011;58935;54.498;18.544;2024-03-02T08:45:46;57.90;;;35.60;;
71204;SDS011;58935;54.498;18.544;2024-03-02T08:48:12;52.30;;;33.60;;
71204;SDS011;58935;54.498;18.544;2024-03-02T08:50:37;57.90;;;33.60;;
71204;SDS011;58935;54.498;18.544;2024-03-02T08:53:03;52.30;;;33.50;;
71204;SDS011;58935;54.498;18.544;2024-03-02T08:55:29;52.70;;;32.00;;
71204;SDS011;58935;54.498;18.544;2024-03-02T08:57:55;61.00;;;34.00;;
71204;SDS011;58935;54.498;18.544;2024-03-02T09:00:20;56.30;;;34.30;;
71204;SDS011;58935;54.498;18.544;2024-03-02T09:02:48;56.90;;;33.50;;
71204;SDS011;58935;54.498;18.544;2024-03-02T09:05:17;58.00;;;35.10;;
71204;SDS011;58935;54.498;18.544;2024-03-02T09:07:42;56.70;;;35.40;;
71204;SDS011;58935;54.498;18.544;2024-03-02T09:10:08;50.90;;;32.80;;
71204;SDS011;58935;54.498;18.544;2024-03-02T09:12:35;52.20;;;33.00;;
71204;SDS011;58935;54.498;18.544;2024-03-02T09:15:03;55.10;;;33.10;;
71204;SDS011;58935;54.498;18.544;2024-03-02T09:17:29;53.30;;;34.10;;
71204;SDS011;58935;54.498;18.544;2024-03-02T09:19:55;56.30;;;35.00;;
71204;SDS011;58935;54.498;18.544;2024-03-02T09:22:20;56.80;;;32.80;;
71204;SDS011;58935;54.498;18.544;2024-03-02T09:24:46;55.40;;;34.40;;
71204;SDS011;58935;54.498;18.544;2024-03-02T09:27:11;53.40;;;33.20;;
71204;SDS011;58935;54.498;18.544;2024-03-02T09:29:37;53.20;;;33.00;;
71204;SDS011;58935;54.498;18.544;2024-03-02T09:32:05;57.90;;;35.80;;
71204;SDS011;58935;54.498;18.544;2024-03-02T09:34:32;54.30;;;33.30;;
71204;SDS011;58935;54.498;18.544;2024-03-02T09:36:57;55.90;;;34.00;;
71204;SDS011;58935;54.498;18.544;2024-03-02T09:39:23;56.30;;;35.30;;
71204;SDS011;58935;54.498;18.544;2024-03-02T09:41:50;56.70;;;34.10;;
71204;SDS011;58935;54.498;18.544;2024-03-02T09:44:16;52.20;;;33.50;;
71204;SDS011;58935;54.498;18.544;2024-03-02T09:46:41;57.60;;;35.70;;
71204;SDS011;58935;54.498;18.544;2024-03-02T09:49:09;51.30;;;33.20;;
71204;SDS011;58935;54.498;18.544;2024-03-02T09:51:39;56.30;;;32.90;;
71204;SDS011;58935;54.498;18.544;2024-03-02T09:54:07;52.50;;;34.00;;
71204;SDS011;58935;54.498;18.544;2024-03-02T09:56:33;41.50;;;27.10;;
71204;SDS011;58935;54.498;18.544;2024-03-02T09:59:00;47.30;;;32.60;;
71204;SDS011;58935;54.498;18.544;2024-03-02T10:01:28;54.60;;;33.80;;
71204;SDS011;58935;54.498;18.544;2024-03-02T10:03:53;62.90;;;34.40;;
71204;SDS011;58935;54.498;18.544;2024-03-02T10:06:23;47.20;;;32.50;;
71204;SDS011;58935;54.498;18.544;2024-03-02T10:08:50;47.90;;;32.50;;
71204;SDS011;58935;54.498;18.544;2024-03-02T10:13:50;49.30;;;32.40;;
71204;SDS011;58935;54.498;18.544;2024-03-02T10:16:28;45.40;;;32.10;;
71204;SDS011;58935;54.498;18.544;2024-03-02T10:18:54;54.10;;;33.90;;
71204;SDS011;58935;54.498;18.544;2024-03-02T10:21:19;52.40;;;32.90;;
71204;SDS011;58935;54.498;18.544;2024-03-02T10:23:44;47.20;;;32.60;;
71204;SDS011;58935;54.498;18.544;2024-03-02T10:26:17;49.00;;;33.00;;
71204;SDS011;58935;54.498;18.544;2024-03-02T10:28:46;51.00;;;34.00;;
71204;SDS011;58935;54.498;18.544;2024-03-02T10:31:16;48.80;;;32.10;;
71204;SDS011;58935;54.498;18.544;2024-03-02T10:33:41;59.50;;;34.70;;
71204;SDS011;58935;54.498;18.544;2024-03-02T10:36:09;52.20;;;34.10;;
71204;SDS011;58935;54.498;18.544;2024-03-02T10:38:37;52.50;;;34.30;;
71204;SDS011;58935;54.498;18.544;2024-03-02T10:41:02;48.80;;;31.50;;
71204;SDS011;58935;54.498;18.544;2024-03-02T10:43:29;49.60;;;33.00;;
71204;SDS011;58935;54.498;18.544;2024-03-02T10:45:56;46.80;;;31.10;;
71204;SDS011;58935;54.498;18.544;2024-03-02T10:48:24;45.70;;;32.30;;
71204;SDS011;58935;54.498;18.544;2024-03-02T10:50:54;45.30;;;32.00;;
71204;SDS011;58935;54.498;18.544;2024-03-02T10:53:20;45.40;;;32.80;;
71204;SDS011;58935;54.498;18.544;2024-03-02T10:55:47;46.00;;;30.60;;
71204;SDS011;58935;54.498;18.544;2024-03-02T10:58:20;45.60;;;30.50;;
71204;SDS011;58935;54.498;18.544;2024-03-02T11:00:47;43.80;;;30.40;;
71204;SDS011;58935;54.498;18.544;2024-03-02T11:03:13;43.70;;;29.70;;
71204;SDS011;58935;54.498;18.544;2024-03-02T11:05:42;39.70;;;28.90;;
71204;SDS011;58935;54.498;18.544;2024-03-02T11:08:13;46.50;;;32.10;;
71204;SDS011;58935;54.498;18.544;2024-03-02T11:10:50;44.50;;;30.20;;
71204;SDS011;58935;54.498;18.544;2024-03-02T11:13:22;44.70;;;30.60;;
71204;SDS011;58935;54.498;18.544;2024-03-02T11:15:52;45.60;;;29.40;;
71204;SDS011;58935;54.498;18.544;2024-03-02T11:18:20;44.50;;;29.80;;
71204;SDS011;58935;54.498;18.544;2024-03-02T11:20:49;42.70;;;28.90;;
71204;SDS011;58935;54.498;18.544;2024-03-02T11:23:15;45.60;;;32.10;;
71204;SDS011;58935;54.498;18.544;2024-03-02T11:25:40;45.30;;;31.00;;
71204;SDS011;58935;54.498;18.544;2024-03-02T11:28:06;44.50;;;29.00;;
71204;SDS011;58935;54.498;18.544;2024-03-02T11:30:50;45.10;;;31.30;;
71204;SDS011;58935;54.498;18.544;2024-03-02T11:33:23;49.70;;;32.80;;
71204;SDS011;58935;54.498;18.544;2024-03-02T11:35:49;47.60;;;29.30;;
71204;SDS011;58935;54.498;18.544;2024-03-02T11:38:18;37.70;;;28.50;;
71204;SDS011;58935;54.498;18.544;2024-03-02T11:40:44;45.00;;;28.80;;
71204;SDS011;58935;54.498;18.544;2024-03-02T11:43:09;41.10;;;29.20;;
71204;SDS011;58935;54.498;18.544;2024-03-02T11:45:36;50.30;;;29.60;;
71204;SDS011;58935;54.498;18.544;2024-03-02T11:48:08;41.00;;;29.20;;
71204;SDS011;58935;54.498;18.544;2024-03-02T11:50:41;43.30;;;28.00;;
71204;SDS011;58935;54.498;18.544;2024-03-02T11:53:11;49.90;;;30.90;;
71204;SDS011;58935;54.498;18.544;2024-03-02T11:55:39;48.10;;;32.00;;
71204;SDS011;58935;54.498;18.544;2024-03-02T11:58:07;44.90;;;29.50;;
71204;SDS011;58935;54.498;18.544;2024-03-02T12:00:33;44.40;;;28.30;;
71204;SDS011;58935;54.498;18.544;2024-03-02T12:03:03;44.00;;;30.40;;
71204;SDS011;58935;54.498;18.544;2024-03-02T12:05:30;42.40;;;28.30;;
71204;SDS011;58935;54.498;18.544;2024-03-02T12:07:58;45.20;;;28.70;;
71204;SDS011;58935;54.498;18.544;2024-03-02T12:10:25;44.40;;;29.30;;
71204;SDS011;58935;54.498;18.544;2024-03-02T12:13:03;42.50;;;30.00;;
71204;SDS011;58935;54.498;18.544;2024-03-02T12:15:31;41.10;;;29.50;;
71204;SDS011;58935;54.498;18.544;2024-03-02T12:17:59;49.20;;;29.90;;
71204;SDS011;58935;54.498;18.544;2024-03-02T12:20:27;42.20;;;30.30;;
71204;SDS011;58935;54.498;18.544;2024-03-02T12:22:55;39.40;;;29.20;;
71204;SDS011;58935;54.498;18.544;2024-03-02T12:25:24;44.80;;;30.60;;
71204;SDS011;58935;54.498;18.544;2024-03-02T12:27:52;46.20;;;28.20;;
71204;SDS011;58935;54.498;18.544;2024-03-02T12:30:19;47.60;;;29.30;;
71204;SDS011;58935;54.498;18.544;2024-03-02T12:32:46;41.10;;;29.30;;
71204;SDS011;58935;54.498;18.544;2024-03-02T12:35:12;43.10;;;29.40;;
71204;SDS011;58935;54.498;18.544;2024-03-02T12:37:43;45.90;;;27.80;;
71204;SDS011;58935;54.498;18.544;2024-03-02T12:40:11;46.10;;;29.00;;
71204;SDS011;58935;54.498;18.544;2024-03-02T12:42:38;43.20;;;28.30;;
71204;SDS011;58935;54.498;18.544;2024-03-02T12:45:05;42.40;;;28.20;;
71204;SDS011;58935;54.498;18.544;2024-03-02T12:47:32;42.40;;;29.70;;
71204;SDS011;58935;54.498;18.544;2024-03-02T12:49:59;44.20;;;29.60;;
71204;SDS011;58935;54.498;18.544;2024-03-02T12:52:24;47.20;;;30.70;;
71204;SDS011;58935;54.498;18.544;2024-03-02T12:54:50;41.00;;;29.10;;
71204;SDS011;58935;54.498;18.544;2024-03-02T12:57:18;40.50;;;29.40;;
71204;SDS011;58935;54.498;18.544;2024-03-02T12:59:45;49.30;;;31.70;;
71204;SDS011;58935;54.498;18.544;2024-03-02T13:02:17;40.50;;;28.50;;
71204;SDS011;58935;54.498;18.544;2024-03-02T13:04:43;43.30;;;30.60;;
71204;SDS011;58935;54.498;18.544;2024-03-02T13:07:10;39.90;;;28.10;;
71204;SDS011;58935;54.498;18.544;2024-03-02T13:09:41;44.80;;;30.50;;
71204;SDS011;58935;54.498;18.544;2024-03-02T13:12:06;44.90;;;30.00;;
71204;SDS011;58935;54.498;18.544;2024-03-02T13:14:33;48.00;;;31.10;;
71204;SDS011;58935;54.498;18.544;2024-03-02T13:17:01;48.20;;;31.10;;
71204;SDS011;58935;54.498;18.544;2024-03-02T13:19:29;45.40;;;30.60;;
71204;SDS011;58935;54.498;18.544;2024-03-02T13:21:56;47.20;;;30.50;;
71204;SDS011;58935;54.498;18.544;2024-03-02T13:24:22;45.80;;;30.50;;
71204;SDS011;58935;54.498;18.544;2024-03-02T13:26:50;51.80;;;30.40;;
71204;SDS011;58935;54.498;18.544;2024-03-02T13:29:20;46.70;;;31.50;;
71204;SDS011;58935;54.498;18.544;2024-03-02T13:31:46;56.90;;;36.40;;
71204;SDS011;58935;54.498;18.544;2024-03-02T13:34:12;53.00;;;33.10;;
71204;SDS011;58935;54.498;18.544;2024-03-02T13:36:37;82.80;;;42.40;;
71204;SDS011;58935;54.498;18.544;2024-03-02T13:39:03;68.80;;;37.40;;
71204;SDS011;58935;54.498;18.544;2024-03-02T13:41:31;59.70;;;34.50;;
71204;SDS011;58935;54.498;18.544;2024-03-02T13:43:57;81.50;;;40.60;;
71204;SDS011;58935;54.498;18.544;2024-03-02T13:46:26;56.10;;;34.50;;
71204;SDS011;58935;54.498;18.544;2024-03-02T13:48:54;129.80;;;53.90;;
71204;SDS011;58935;54.498;18.544;2024-03-02T13:51:22;78.40;;;40.70;;
71204;SDS011;58935;54.498;18.544;2024-03-02T13:53:47;127.60;;;59.20;;
71204;SDS011;58935;54.498;18.544;2024-03-02T13:56:13;81.80;;;42.80;;
71204;SDS011;58935;54.498;18.544;2024-03-02T13:58:38;61.10;;;36.70;;
71204;SDS011;58935;54.498;18.544;2024-03-02T14:01:05;89.50;;;47.80;;
71204;SDS011;58935;54.498;18.544;2024-03-02T14:03:30;53.40;;;34.50;;
71204;SDS011;58935;54.498;18.544;2024-03-02T14:05:56;44.80;;;31.10;;
71204;SDS011;58935;54.498;18.544;2024-03-02T14:08:22;43.00;;;28.80;;
71204;SDS011;58935;54.498;18.544;2024-03-02T14:10:48;45.30;;;29.60;;
71204;SDS011;58935;54.498;18.544;2024-03-02T14:13:16;41.90;;;29.30;;
71204;SDS011;58935;54.498;18.544;2024-03-02T14:15:42;46.60;;;30.50;;